Aérodrome :







RETROUVEZ-NOUS SUR...

 
LOGIN :

S'inscrire | Disclaimer

   EN    FR    IT 

 









Légende :    VFR   VFR Marginal   IFR   IFR Intensif   IFR Très Intensif
Visi : 
Plafond : 
>= 8 km
>= 3000ft
5 à 8 km
1000 à 3000 ft
1500m à 5 km
500 à 1000 ft
800 à 1500m
200 à 500 ft
< 800m
< 200 ft
Symboles :   Orages  Brouillard  Fortes neiges  Fortes précipitations  Vent > 20 kt






- Altitude de l'aérodrome : 603 ft
- Code IATA : LEB


KLEB - Lebanon Municipal

DERNIER METAR :
  • 210053Z 00000KT 10SM CLR M16/M20 A3027 RMK AO2 SLP274 T11611200

METARs EXPIRÉS :
  • 202353Z 00000KT 10SM CLR M16/M20 A3026 RMK AO2 SLP270 T11561200 11050 21156 53013
  • 202253Z 00000KT 10SM CLR M12/M18 A3025 RMK AO2 SLP263 T11171183

TAF KLEB
Valide du 21 à 00h jusqu'au 22 à 00h UTC


202320Z 2100/2124 VRB02KT P6SM SKC



MET'MAP, la Météo Aéronautique d'un coup d'oeil ! - Copyright ORBIFLY Décembre 2007 - Disclaimer

ORBIFLY MET'MAP TEAM :

Programmation & Développement : Alexandra Zaïnal
Sur une idée originale de : Baudouin d'Aumeries
Assistance à la programmation : Marc-Olivier Méhu
Soutien technique & logistique : Manuel Goepfert

Contact : metmap@orbifly.com




SOURCES & CREDITS :

   NOAA